Time;durP1;ratioP1;P1;durP2;ratioP2;P2;SDS_P1;SDS_P2;PMS_P1;PMS_P2;Temp;Humidity;BMP_temperature;BMP_pressure;BME280_temperature;BME280_humidity;BME280_pressure;Samples;Min_cycle;Max_cycle;Signal;HPM_P1;HPM_P2
2023/01/05 00:01:06;;;;;;;21.67;4.35;;;11.70;99.90;;;;;;5043097;28;20832;-40
2023/01/05 00:03:33;;;;;;;18.52;4.28;;;11.70;99.90;;;;;;5044444;28;20029;-40
2023/01/05 00:06:03;;;;;;;25.17;5.30;;;11.60;99.90;;;;;;5042954;28;20021;-36
2023/01/05 00:08:29;;;;;;;16.83;4.03;;;11.60;99.90;;;;;;5042982;28;20547;-40
2023/01/05 00:24:53;;;;;;;20.25;4.40;;;11.40;99.90;;;;;;5030848;28;20116;-41
2023/01/05 00:27:19;;;;;;;19.92;4.10;;;11.30;99.90;;;;;;5042986;28;20571;-38
2023/01/05 00:29:44;;;;;;;18.33;4.03;;;11.30;99.90;;;;;;5042920;28;20691;-40
2023/01/05 00:32:13;;;;;;;18.75;4.15;;;11.30;99.90;;;;;;5043437;28;20021;-40
2023/01/05 00:34:38;;;;;;;19.17;4.55;;;11.30;99.90;;;;;;5032669;28;20425;-39
2023/01/05 00:37:04;;;;;;;20.65;4.15;;;11.20;99.90;;;;;;5043382;28;20180;-40
2023/01/05 00:39:30;;;;;;;17.95;4.38;;;11.20;99.90;;;;;;5043158;28;20041;-40
2023/01/05 00:41:55;;;;;;;22.40;4.93;;;11.20;99.90;;;;;;5042923;28;20029;-42
2023/01/05 00:44:21;;;;;;;13.02;3.75;;;11.20;99.90;;;;;;5042546;28;20036;-41
2023/01/05 00:46:46;;;;;;;19.27;4.55;;;11.20;99.90;;;;;;5043471;28;20025;-40
2023/01/05 00:49:12;;;;;;;18.20;3.72;;;11.20;99.90;;;;;;5042733;28;20036;-39
2023/01/05 00:51:37;;;;;;;19.33;4.85;;;11.10;99.90;;;;;;5043255;28;20080;-39
2023/01/05 00:54:03;;;;;;;20.63;4.47;;;11.10;99.90;;;;;;5042392;28;20055;-38
2023/01/05 00:56:28;;;;;;;23.60;4.25;;;11.10;99.90;;;;;;5043480;28;20036;-40
2023/01/05 00:58:54;;;;;;;23.58;4.95;;;11.00;99.90;;;;;;5043326;28;20104;-39
2023/01/05 01:01:20;;;;;;;18.42;4.15;;;11.00;99.90;;;;;;5043195;28;20035;-40
2023/01/05 01:03:45;;;;;;;23.05;4.55;;;11.00;99.90;;;;;;5043073;28;20021;-39
2023/01/05 01:06:12;;;;;;;21.70;4.22;;;10.90;99.90;;;;;;5042541;28;20025;-38
2023/01/05 01:08:38;;;;;;;22.65;4.45;;;10.90;99.90;;;;;;5043346;28;20078;-36
2023/01/05 01:11:08;;;;;;;22.38;3.92;;;11.00;99.90;;;;;;5041783;28;20111;-41
2023/01/05 01:13:34;;;;;;;20.80;4.18;;;11.00;99.90;;;;;;5043598;28;20023;-40
2023/01/05 01:16:13;;;;;;;17.80;4.07;;;11.00;99.90;;;;;;5031670;28;20029;-40
2023/01/05 01:18:40;;;;;;;22.17;3.90;;;11.00;99.90;;;;;;5042737;28;20406;-39
2023/01/05 01:21:05;;;;;;;19.73;3.72;;;11.00;99.90;;;;;;5042877;28;20041;-39
2023/01/05 01:23:32;;;;;;;16.77;3.60;;;11.00;99.90;;;;;;5044497;28;20531;-39
2023/01/05 01:26:08;;;;;;;15.20;3.60;;;11.00;99.90;;;;;;5045521;28;20602;-38
2023/01/05 01:28:34;;;;;;;19.80;4.13;;;11.00;99.90;;;;;;5047208;28;20036;-37
2023/01/05 01:31:00;;;;;;;18.85;3.88;;;11.00;99.90;;;;;;5045822;28;20017;-38
2023/01/05 01:33:26;;;;;;;20.63;4.30;;;11.00;99.90;;;;;;5046522;28;20031;-38
2023/01/05 01:35:52;;;;;;;23.50;3.95;;;11.00;99.90;;;;;;5046861;28;20103;-41
2023/01/05 01:38:17;;;;;;;16.83;3.85;;;11.00;99.90;;;;;;5047093;28;20151;-40
2023/01/05 01:40:45;;;;;;;24.67;4.63;;;11.00;99.90;;;;;;5046379;28;20720;-39
2023/01/05 01:43:33;;;;;;;15.25;3.35;;;11.00;99.90;;;;;;5046151;28;20092;-40
2023/01/05 01:45:58;;;;;;;19.73;4.22;;;11.00;99.90;;;;;;5046040;28;20041;-40
2023/01/05 01:48:24;;;;;;;20.45;4.60;;;11.00;99.90;;;;;;5045841;28;20033;-39
2023/01/05 01:50:53;;;;;;;21.83;4.53;;;11.00;99.90;;;;;;5045993;28;20025;-41
2023/01/05 01:53:26;;;;;;;23.13;4.60;;;11.00;99.90;;;;;;5045123;28;20064;-40
2023/01/05 01:55:54;;;;;;;20.60;3.78;;;11.10;99.90;;;;;;5045931;28;20025;-39
2023/01/05 01:58:24;;;;;;;23.25;4.25;;;11.00;99.90;;;;;;5046117;28;20032;-41
2023/01/05 02:00:49;;;;;;;28.48;4.38;;;11.10;99.90;;;;;;5044967;28;20781;-40
2023/01/05 02:03:15;;;;;;;27.17;4.50;;;11.10;99.90;;;;;;5045904;28;20025;-40
2023/01/05 02:05:41;;;;;;;19.13;4.07;;;11.10;99.90;;;;;;5046407;28;20719;-41
2023/01/05 02:08:14;;;;;;;18.95;4.20;;;11.10;99.90;;;;;;5044673;28;20029;-40
2023/01/05 02:11:01;;;;;;;20.40;3.92;;;11.10;99.90;;;;;;5045795;28;20029;-41
2023/01/05 02:13:38;;;;;;;17.90;4.22;;;11.10;99.90;;;;;;5046763;28;20025;-40
2023/01/05 02:16:15;;;;;;;20.83;4.45;;;11.10;99.90;;;;;;5044490;28;20851;-39
2023/01/05 02:19:29;;;;;;;20.58;3.67;;;11.10;99.90;;;;;;5046182;28;20028;-39
2023/01/05 02:22:16;;;;;;;26.15;4.55;;;11.10;99.90;;;;;;5045190;28;20041;-40
2023/01/05 02:25:03;;;;;;;20.25;3.85;;;11.10;99.90;;;;;;5026346;28;20033;-39
2023/01/05 02:28:16;;;;;;;14.00;4.25;;;11.10;99.90;;;;;;5043831;28;20029;-41
2023/01/05 02:30:58;;;;;;;18.25;4.32;;;11.10;99.90;;;;;;5043218;28;20041;-41
2023/01/05 02:33:53;;;;;;;19.75;3.85;;;11.10;99.90;;;;;;5043876;28;20025;-41
2023/01/05 02:36:49;;;;;;;23.30;4.90;;;11.10;99.90;;;;;;5044080;28;20040;-39
2023/01/05 02:39:29;;;;;;;19.70;4.35;;;11.10;99.90;;;;;;5037570;28;20106;-40
2023/01/05 02:42:02;;;;;;;17.17;3.78;;;11.10;99.90;;;;;;5045490;28;20028;-38
2023/01/05 02:44:30;;;;;;;20.10;4.43;;;11.10;99.90;;;;;;5044730;28;20033;-40
2023/01/05 02:47:24;;;;;;;24.88;5.25;;;11.10;99.90;;;;;;5044853;28;20040;-38
2023/01/05 02:49:53;;;;;;;23.83;4.38;;;11.20;99.90;;;;;;5044295;28;20028;-33
2023/01/05 02:52:20;;;;;;;24.13;4.65;;;11.20;99.90;;;;;;5043007;28;20065;-34
2023/01/05 02:55:01;;;;;;;21.50;4.47;;;11.20;99.90;;;;;;5034389;28;20079;-41
2023/01/05 02:57:46;;;;;;;23.38;3.90;;;11.20;99.90;;;;;;5033379;28;20017;-40
2023/01/05 03:00:15;;;;;;;18.08;3.78;;;11.20;99.90;;;;;;5045041;28;20040;-40
2023/01/05 03:02:47;;;;;;;20.73;3.80;;;11.20;99.90;;;;;;5045016;28;20021;-38
2023/01/05 03:05:17;;;;;;;18.00;3.90;;;11.20;99.90;;;;;;5043909;28;20028;-34
2023/01/05 03:07:44;;;;;;;18.75;3.53;;;11.20;99.90;;;;;;5045075;28;20021;-40
2023/01/05 03:15:50;;;;;;;21.08;3.95;;;11.30;99.90;;;;;;5044962;28;20401;-40
2023/01/05 03:18:19;;;;;;;19.50;4.45;;;11.30;99.90;;;;;;5043569;28;20102;-38
2023/01/05 03:20:48;;;;;;;25.45;5.10;;;11.30;99.90;;;;;;5044580;28;20087;-39
2023/01/05 03:37:58;;;;;;;25.15;5.38;;;11.30;99.90;;;;;;5044980;28;20100;-41
2023/01/05 03:40:29;;;;;;;19.02;4.32;;;11.30;99.90;;;;;;5039590;28;20036;-40
2023/01/05 03:42:55;;;;;;;15.18;3.45;;;11.30;99.90;;;;;;5044091;28;20052;-40
2023/01/05 03:45:27;;;;;;;22.52;5.10;;;11.30;99.90;;;;;;5043645;28;20846;-41
2023/01/05 03:47:54;;;;;;;24.00;5.22;;;11.20;99.90;;;;;;5043578;28;20009;-41
2023/01/05 03:50:20;;;;;;;22.17;4.28;;;11.30;99.90;;;;;;5043550;28;20041;-37
2023/01/05 03:52:46;;;;;;;20.50;4.53;;;11.30;99.90;;;;;;5042110;28;20029;-39
2023/01/05 03:55:11;;;;;;;22.40;4.35;;;11.30;99.90;;;;;;5043401;28;20131;-38
2023/01/05 03:57:37;;;;;;;21.17;4.78;;;11.30;99.90;;;;;;5044457;28;20060;-41
2023/01/05 04:00:03;;;;;;;21.45;4.75;;;11.30;99.90;;;;;;5043165;28;20800;-39
2023/01/05 04:02:29;;;;;;;25.50;5.18;;;11.30;99.90;;;;;;5044766;28;20040;-40
2023/01/05 04:04:54;;;;;;;18.00;3.53;;;11.30;99.90;;;;;;5044449;28;20043;-37
2023/01/05 04:07:23;;;;;;;21.50;4.57;;;11.30;99.90;;;;;;5042766;28;20487;-40
2023/01/05 04:09:51;;;;;;;19.65;4.25;;;11.30;99.90;;;;;;5043722;28;20021;-40
2023/01/05 04:12:17;;;;;;;17.73;4.30;;;11.30;99.90;;;;;;5042903;28;20116;-39
2023/01/05 04:14:42;;;;;;;23.13;4.50;;;11.30;99.90;;;;;;5043404;28;20029;-38
2023/01/05 04:17:08;;;;;;;25.85;4.47;;;11.30;99.90;;;;;;5042825;28;20043;-40
2023/01/05 04:19:33;;;;;;;23.95;4.90;;;11.30;99.90;;;;;;5043702;28;20211;-40
2023/01/05 04:21:59;;;;;;;20.95;4.25;;;11.30;99.90;;;;;;5042727;28;20098;-39
2023/01/05 04:24:24;;;;;;;21.13;4.50;;;11.30;99.90;;;;;;5043948;28;20166;-38
2023/01/05 04:26:50;;;;;;;19.52;3.85;;;11.30;99.90;;;;;;5043889;28;20067;-39
2023/01/05 04:29:19;;;;;;;15.48;3.83;;;11.30;99.90;;;;;;5042206;28;20104;-37
2023/01/05 04:31:44;;;;;;;22.25;4.93;;;11.30;99.90;;;;;;5043996;28;20028;-39
2023/01/05 04:34:10;;;;;;;15.90;3.35;;;11.30;99.90;;;;;;5042489;28;20119;-37
2023/01/05 04:36:35;;;;;;;17.73;3.63;;;11.30;99.90;;;;;;5043347;28;20193;-39
2023/01/05 04:39:01;;;;;;;18.50;3.70;;;11.30;99.90;;;;;;5043170;28;20027;-39
2023/01/05 04:41:26;;;;;;;15.82;4.03;;;11.30;99.90;;;;;;5043763;28;20489;-40
2023/01/05 04:43:52;;;;;;;18.83;3.63;;;11.30;99.90;;;;;;5043135;28;20033;-39
2023/01/05 04:46:17;;;;;;;15.77;3.35;;;11.30;99.90;;;;;;5042156;28;20029;-41
2023/01/05 04:48:46;;;;;;;14.57;3.28;;;11.30;99.90;;;;;;5043573;28;20051;-39
2023/01/05 04:51:11;;;;;;;14.90;3.13;;;11.30;99.90;;;;;;5041753;28;20578;-39
2023/01/05 04:53:37;;;;;;;14.77;3.05;;;11.30;99.90;;;;;;5043277;28;20025;-40
2023/01/05 04:56:03;;;;;;;17.20;3.80;;;11.30;99.90;;;;;;5042423;28;20061;-39
2023/01/05 04:58:28;;;;;;;19.77;4.18;;;11.30;99.90;;;;;;5045292;28;20500;-39
2023/01/05 05:00:54;;;;;;;18.50;3.80;;;11.30;99.90;;;;;;5047206;28;20048;-40
2023/01/05 05:03:19;;;;;;;19.25;3.75;;;11.30;99.90;;;;;;5046607;28;20017;-40
2023/01/05 05:05:45;;;;;;;19.67;4.00;;;11.30;99.90;;;;;;5047589;28;20155;-38
2023/01/05 05:08:10;;;;;;;17.00;4.43;;;11.30;99.90;;;;;;5046723;28;20673;-39
2023/01/05 05:10:36;;;;;;;18.10;4.07;;;11.20;99.90;;;;;;5046873;28;20037;-39
2023/01/05 05:13:01;;;;;;;20.20;3.60;;;11.20;99.90;;;;;;5046322;28;20021;-39
2023/01/05 05:15:27;;;;;;;14.07;3.08;;;11.20;99.90;;;;;;5047512;28;20465;-40
2023/01/05 05:17:52;;;;;;;27.38;5.03;;;11.20;99.90;;;;;;5046755;28;20900;-41
2023/01/05 05:20:18;;;;;;;24.15;4.18;;;11.20;99.90;;;;;;5046394;28;20449;-39
2023/01/05 05:22:43;;;;;;;16.60;3.58;;;11.20;99.90;;;;;;5046956;28;20025;-39
2023/01/05 05:25:09;;;;;;;20.60;4.00;;;11.20;99.90;;;;;;5045679;28;20082;-40
2023/01/05 05:27:35;;;;;;;16.65;3.58;;;11.20;99.90;;;;;;5046603;28;20098;-40
2023/01/05 05:30:00;;;;;;;19.80;3.50;;;11.20;99.90;;;;;;5046246;28;20063;-40
2023/01/05 05:32:26;;;;;;;20.50;3.80;;;11.20;99.90;;;;;;5045751;28;20555;-39
2023/01/05 05:34:51;;;;;;;16.20;3.28;;;11.20;99.90;;;;;;5046374;28;20259;-39
2023/01/05 05:37:17;;;;;;;17.98;3.70;;;11.20;99.90;;;;;;5046440;28;20021;-41
2023/01/05 05:39:42;;;;;;;22.50;3.58;;;11.30;99.90;;;;;;5045315;28;20136;-39
2023/01/05 05:42:08;;;;;;;22.50;4.57;;;11.30;99.90;;;;;;5046245;28;20021;-39
2023/01/05 05:44:33;;;;;;;16.70;3.63;;;11.20;99.90;;;;;;5046423;28;20025;-39
2023/01/05 05:46:59;;;;;;;14.75;3.50;;;11.30;99.90;;;;;;5045020;28;20039;-40
2023/01/05 05:49:24;;;;;;;19.67;4.05;;;11.30;99.90;;;;;;5046380;28;20040;-39
2023/01/05 05:51:50;;;;;;;17.67;3.65;;;11.30;99.90;;;;;;5047170;28;20025;-40
2023/01/05 05:54:16;;;;;;;15.88;3.30;;;11.30;99.90;;;;;;5044944;28;20430;-38
2023/01/05 05:56:41;;;;;;;25.00;3.75;;;11.30;99.90;;;;;;5046671;28;20028;-40
2023/01/05 05:59:07;;;;;;;20.48;3.78;;;11.30;99.90;;;;;;5045576;28;20455;-39
2023/01/05 06:01:32;;;;;;;13.68;3.05;;;11.40;99.90;;;;;;5045934;28;20086;-38
2023/01/05 06:03:58;;;;;;;13.57;3.25;;;11.30;99.90;;;;;;5046057;28;20025;-38
2023/01/05 06:06:23;;;;;;;16.50;3.58;;;11.40;99.90;;;;;;5045207;28;20035;-41
2023/01/05 06:08:49;;;;;;;13.95;3.10;;;11.40;99.90;;;;;;5045881;28;20025;-40
2023/01/05 06:11:14;;;;;;;19.85;4.25;;;11.40;99.90;;;;;;5045481;28;20037;-37
2023/01/05 06:13:41;;;;;;;16.23;3.88;;;11.40;99.90;;;;;;5045670;28;20039;-37
2023/01/05 06:16:06;;;;;;;16.70;3.20;;;11.40;99.90;;;;;;5045774;28;20025;-34
2023/01/05 06:18:32;;;;;;;14.40;3.28;;;11.40;99.90;;;;;;5046019;28;20046;-37
2023/01/05 06:20:57;;;;;;;18.23;3.97;;;11.40;99.90;;;;;;5044853;28;20041;-38
2023/01/05 06:23:23;;;;;;;18.20;3.85;;;11.40;99.90;;;;;;5045089;28;20029;-36
2023/01/05 06:25:48;;;;;;;18.70;3.38;;;11.40;99.90;;;;;;5045948;28;20573;-40
2023/01/05 06:28:14;;;;;;;17.52;3.50;;;11.40;99.90;;;;;;5044421;28;20586;-39
2023/01/05 06:30:39;;;;;;;16.48;3.33;;;11.40;99.90;;;;;;5045652;28;20028;-38
2023/01/05 06:33:05;;;;;;;15.65;3.58;;;11.40;99.90;;;;;;5045291;28;20032;-39
2023/01/05 06:35:30;;;;;;;15.32;3.47;;;11.40;99.90;;;;;;5044536;28;20053;-37
2023/01/05 06:37:56;;;;;;;22.52;4.68;;;11.40;99.90;;;;;;5046257;28;20032;-40
2023/01/05 06:40:22;;;;;;;15.63;3.85;;;11.40;99.90;;;;;;5045074;28;20029;-40
2023/01/05 06:42:47;;;;;;;18.27;3.58;;;11.40;99.90;;;;;;5044873;28;20021;-40
2023/01/05 06:45:14;;;;;;;17.13;3.70;;;11.40;99.90;;;;;;5045140;28;20473;-40
2023/01/05 06:47:40;;;;;;;21.10;4.00;;;11.40;99.90;;;;;;5045308;28;20151;-40
2023/01/05 06:50:06;;;;;;;20.02;4.13;;;11.40;99.90;;;;;;5044474;28;20354;-41
2023/01/05 06:52:38;;;;;;;17.38;3.53;;;11.40;99.90;;;;;;5045370;28;20021;-38
2023/01/05 06:55:08;;;;;;;18.80;4.13;;;11.40;99.90;;;;;;5044442;28;20191;-41
2023/01/05 06:57:35;;;;;;;18.23;3.80;;;11.40;99.90;;;;;;5044145;28;20107;-40
2023/01/05 07:00:05;;;;;;;23.02;4.07;;;11.40;99.90;;;;;;5043644;28;20025;-40
2023/01/05 07:02:31;;;;;;;18.92;3.80;;;11.40;99.90;;;;;;5045118;28;20021;-38
2023/01/05 07:04:56;;;;;;;21.60;3.80;;;11.40;99.90;;;;;;5044127;28;20035;-32
2023/01/05 07:07:22;;;;;;;11.80;3.10;;;11.50;99.90;;;;;;5044414;28;20028;-39
2023/01/05 07:09:48;;;;;;;14.98;2.97;;;11.50;99.90;;;;;;5044870;28;20052;-37
2023/01/05 07:12:14;;;;;;;17.27;3.70;;;11.50;99.90;;;;;;5043592;28;20024;-38
2023/01/05 07:14:39;;;;;;;16.83;3.25;;;11.50;99.90;;;;;;5045379;28;20071;-39
2023/01/05 07:17:05;;;;;;;14.55;3.20;;;11.50;99.90;;;;;;5043874;28;20033;-39
2023/01/05 07:19:31;;;;;;;21.50;4.00;;;11.50;99.90;;;;;;5044784;28;20087;-37
2023/01/05 07:21:57;;;;;;;18.25;3.78;;;11.50;99.90;;;;;;5043971;28;20025;-39
2023/01/05 07:24:22;;;;;;;19.75;3.88;;;11.50;99.90;;;;;;5044200;28;20409;-40
2023/01/05 07:26:49;;;;;;;19.20;3.92;;;11.40;99.90;;;;;;5044687;28;20059;-40
2023/01/05 07:29:15;;;;;;;22.90;4.30;;;11.50;99.90;;;;;;5044158;28;20043;-40
2023/01/05 07:31:40;;;;;;;17.67;5.63;;;11.50;99.90;;;;;;5044332;28;20028;-40
2023/01/05 07:34:07;;;;;;;24.58;4.78;;;11.50;99.90;;;;;;5043807;28;20683;-40
2023/01/05 07:36:33;;;;;;;20.90;4.00;;;11.50;99.90;;;;;;5044560;28;20064;-40
2023/01/05 07:38:58;;;;;;;17.73;4.35;;;11.50;99.90;;;;;;5043881;28;20444;-35
2023/01/05 07:41:24;;;;;;;20.15;3.97;;;11.50;99.90;;;;;;5043995;28;20037;-40
2023/01/05 07:43:49;;;;;;;20.02;4.13;;;11.50;99.90;;;;;;5044424;28;20070;-39
2023/01/05 07:46:15;;;;;;;16.08;4.32;;;11.50;99.90;;;;;;5043151;28;20112;-38
2023/01/05 07:48:41;;;;;;;22.58;4.55;;;11.50;99.90;;;;;;5044520;28;20029;-39
2023/01/05 07:51:08;;;;;;;18.10;4.07;;;11.50;99.90;;;;;;5044547;28;20166;-39
2023/01/05 07:53:37;;;;;;;18.58;3.95;;;11.50;99.90;;;;;;5043528;28;20032;-41
2023/01/05 07:56:04;;;;;;;16.75;4.25;;;11.50;99.90;;;;;;5043774;28;20029;-39
2023/01/05 07:58:30;;;;;;;22.70;4.30;;;11.50;99.90;;;;;;5043992;28;20079;-41
2023/01/05 08:01:06;;;;;;;18.92;3.50;;;11.50;99.90;;;;;;5043310;28;20117;-40
2023/01/05 08:03:32;;;;;;;18.80;4.07;;;11.50;99.90;;;;;;5043675;28;20111;-36
2023/01/05 08:06:02;;;;;;;19.08;4.05;;;11.50;99.90;;;;;;5043170;28;20445;-39
2023/01/05 08:08:27;;;;;;;18.33;3.88;;;11.50;99.90;;;;;;5043607;28;20032;-39
2023/01/05 08:10:53;;;;;;;14.23;3.38;;;11.50;99.90;;;;;;5043943;28;20025;-40
2023/01/05 08:16:02;;;;;;;19.73;3.97;;;11.50;99.90;;;;;;5043839;28;20047;-41
2023/01/05 08:18:28;;;;;;;20.70;3.70;;;11.50;99.90;;;;;;5043935;28;20021;-40
2023/01/05 08:20:59;;;;;;;18.52;3.65;;;11.50;99.90;;;;;;5043698;28;20523;-39
2023/01/05 08:23:26;;;;;;;21.63;4.50;;;11.50;99.90;;;;;;5043590;28;20017;-40
2023/01/05 08:25:55;;;;;;;18.02;3.85;;;11.50;99.90;;;;;;5043278;28;20064;-39
2023/01/05 08:28:21;;;;;;;16.15;3.35;;;11.50;99.90;;;;;;5042995;28;20021;-41
2023/01/05 08:30:47;;;;;;;14.85;3.38;;;11.60;99.90;;;;;;5044052;28;20023;-40
2023/01/05 08:33:12;;;;;;;21.73;3.65;;;11.60;99.90;;;;;;5044333;28;20017;-39
2023/01/05 08:35:43;;;;;;;18.42;4.00;;;11.60;99.90;;;;;;5047565;28;20039;-37
2023/01/05 08:38:11;;;;;;;17.85;3.60;;;11.60;99.90;;;;;;5047051;28;20060;-41
2023/01/05 08:40:37;;;;;;;22.13;3.75;;;11.60;99.90;;;;;;5048043;28;20025;-41
2023/01/05 08:43:04;;;;;;;17.05;3.75;;;11.60;99.90;;;;;;5046686;28;20052;-40
2023/01/05 08:45:31;;;;;;;18.60;4.00;;;11.60;99.90;;;;;;5047517;28;20029;-41
2023/01/05 08:47:56;;;;;;;20.80;3.30;;;11.60;99.90;;;;;;5048176;28;20024;-39
2023/01/05 08:50:22;;;;;;;22.42;4.03;;;11.60;99.90;;;;;;5046484;28;20029;-40
2023/01/05 08:52:47;;;;;;;19.15;3.78;;;11.60;99.90;;;;;;5048024;28;20025;-39
2023/01/05 08:55:13;;;;;;;19.08;3.80;;;11.60;99.90;;;;;;5046254;28;20336;-39
2023/01/05 08:57:39;;;;;;;21.27;4.18;;;11.60;99.90;;;;;;5047689;28;20075;-40
2023/01/05 09:00:05;;;;;;;19.90;4.15;;;11.60;99.90;;;;;;5046984;28;20044;-39
2023/01/05 09:02:31;;;;;;;19.20;3.58;;;11.60;99.90;;;;;;5046277;28;20017;-39
2023/01/05 09:04:56;;;;;;;19.75;3.60;;;11.60;99.90;;;;;;5047432;28;20025;-40
2023/01/05 09:07:23;;;;;;;17.17;3.20;;;11.60;99.90;;;;;;5047202;28;20070;-39
2023/01/05 09:09:48;;;;;;;14.57;3.03;;;11.60;99.90;;;;;;5046505;28;20036;-38
2023/01/05 09:12:14;;;;;;;17.77;3.85;;;11.60;99.90;;;;;;5046995;28;20025;-39
2023/01/05 09:14:39;;;;;;;18.77;3.60;;;11.60;99.90;;;;;;5047857;28;20043;-35
2023/01/05 09:17:05;;;;;;;18.98;3.95;;;11.60;99.90;;;;;;5046475;28;20486;-40
2023/01/05 09:19:30;;;;;;;19.85;3.72;;;11.60;99.90;;;;;;5047543;28;20456;-39
2023/01/05 09:21:56;;;;;;;22.63;4.20;;;11.60;99.90;;;;;;5047693;28;20447;-40
2023/01/05 09:24:22;;;;;;;22.98;4.63;;;11.60;99.90;;;;;;5046049;28;20572;-38
2023/01/05 09:26:47;;;;;;;14.93;3.33;;;11.60;99.90;;;;;;5046373;28;20528;-38
2023/01/05 09:29:13;;;;;;;18.20;4.03;;;11.60;99.90;;;;;;5046571;28;20428;-37
2023/01/05 09:31:42;;;;;;;16.73;3.83;;;11.60;99.90;;;;;;5046101;28;20059;-39
2023/01/05 09:34:08;;;;;;;20.80;4.60;;;11.60;99.90;;;;;;5046292;28;20152;-37
2023/01/05 09:36:36;;;;;;;19.98;3.85;;;11.60;99.90;;;;;;5046403;28;20090;-41
2023/01/05 09:39:05;;;;;;;26.50;4.38;;;11.60;99.90;;;;;;5045385;28;20118;-39
2023/01/05 09:41:43;;;;;;;22.85;4.57;;;11.50;99.90;;;;;;5046583;28;20882;-41
2023/01/05 09:44:39;;;;;;;18.63;4.22;;;11.50;99.90;;;;;;5045802;28;20372;-41
2023/01/05 09:47:37;;;;;;;18.52;3.95;;;11.60;99.90;;;;;;5045981;28;20056;-40
2023/01/05 09:50:11;;;;;;;14.13;3.83;;;11.50;99.90;;;;;;5046427;28;20029;-39
2023/01/05 09:52:36;;;;;;;13.82;3.08;;;11.60;99.90;;;;;;5046142;28;20848;-39
2023/01/05 09:55:11;;;;;;;19.15;4.60;;;11.60;99.90;;;;;;5046261;28;20036;-42
2023/01/05 09:57:38;;;;;;;23.40;4.03;;;11.60;99.90;;;;;;5046278;28;20113;-38
2023/01/05 10:00:06;;;;;;;16.60;4.32;;;11.60;99.90;;;;;;5044961;28;20037;-40
2023/01/05 10:02:49;;;;;;;19.60;4.97;;;11.60;99.90;;;;;;5046193;28;20029;-40
2023/01/05 10:05:15;;;;;;;25.90;4.65;;;11.60;99.90;;;;;;5046171;28;20082;-40
2023/01/05 10:07:56;;;;;;;16.15;4.22;;;11.60;99.90;;;;;;5045764;28;20789;-40
2023/01/05 10:13:39;;;;;;;20.25;3.88;;;11.70;99.90;;;;;;5043011;28;20130;-40
2023/01/05 10:16:05;;;;;;;18.38;3.72;;;11.70;99.90;;;;;;5045397;28;20520;-39
2023/01/05 10:18:33;;;;;;;19.15;3.60;;;11.70;99.90;;;;;;5045882;28;20047;-40
2023/01/05 10:21:23;;;;;;;22.33;4.32;;;11.70;99.90;;;;;;5045245;28;20084;-35
2023/01/05 10:24:07;;;;;;;20.75;5.30;;;11.80;99.90;;;;;;5045997;28;20029;-38
2023/01/05 10:27:02;;;;;;;17.70;4.35;;;11.70;99.90;;;;;;5045276;28;20052;-38
2023/01/05 10:29:52;;;;;;;17.00;2.97;;;11.80;99.90;;;;;;5034779;28;20048;-38
2023/01/05 10:32:42;;;;;;;9.70;3.10;;;11.80;99.90;;;;;;5044731;28;20551;-38
2023/01/05 10:35:36;;;;;;;19.75;4.43;;;11.90;99.90;;;;;;5044546;28;20140;-38
2023/01/05 10:38:26;;;;;;;21.60;4.05;;;11.80;99.90;;;;;;5044794;28;20071;-38
2023/01/05 10:41:06;;;;;;;19.15;3.33;;;11.80;99.90;;;;;;5045224;28;20041;-40
2023/01/05 10:43:53;;;;;;;18.85;3.53;;;11.80;99.90;;;;;;5045522;28;20439;-40
2023/01/05 10:46:20;;;;;;;12.43;2.95;;;11.80;99.90;;;;;;5025005;28;20747;-39
2023/01/05 10:48:46;;;;;;;12.30;3.33;;;11.80;99.90;;;;;;5038923;28;20535;-41
2023/01/05 10:51:11;;;;;;;15.88;3.30;;;11.80;99.90;;;;;;5044346;28;20029;-39
2023/01/05 10:53:43;;;;;;;17.25;3.90;;;11.80;99.90;;;;;;5044894;28;20029;-40
2023/01/05 10:56:22;;;;;;;17.52;3.60;;;11.90;99.90;;;;;;5043475;28;20037;-38
2023/01/05 10:59:04;;;;;;;14.63;3.50;;;11.90;99.90;;;;;;5045639;28;20039;-40
2023/01/05 11:01:30;;;;;;;20.60;3.88;;;11.90;99.90;;;;;;5045089;28;20045;-39
2023/01/05 11:04:06;;;;;;;13.63;3.03;;;11.90;99.90;;;;;;5043968;28;20048;-35
2023/01/05 11:06:33;;;;;;;17.90;3.78;;;11.90;99.90;;;;;;5045050;28;20036;-34
2023/01/05 11:09:12;;;;;;;15.80;3.42;;;11.90;99.90;;;;;;5043911;28;20107;-38
2023/01/05 11:11:38;;;;;;;13.80;3.03;;;12.00;99.90;;;;;;5044606;28;20652;-39
2023/01/05 11:14:04;;;;;;;18.60;3.47;;;12.00;99.90;;;;;;5044748;28;20021;-39
2023/01/05 11:16:34;;;;;;;16.83;3.70;;;12.10;99.90;;;;;;5043977;28;20120;-40
2023/01/05 11:19:01;;;;;;;19.92;3.50;;;12.10;99.90;;;;;;5044421;28;20020;-38
2023/01/05 11:21:43;;;;;;;19.10;4.25;;;12.10;99.90;;;;;;5045177;28;20107;-37
2023/01/05 11:24:23;;;;;;;19.90;3.80;;;12.10;99.90;;;;;;5043607;28;20535;-40
2023/01/05 11:26:54;;;;;;;14.68;3.75;;;12.10;99.90;;;;;;5045188;28;20122;-38
2023/01/05 11:29:20;;;;;;;18.17;4.03;;;12.10;99.90;;;;;;5044156;28;20100;-39
2023/01/05 11:31:48;;;;;;;21.40;4.88;;;12.20;99.90;;;;;;5043950;28;20639;-40
2023/01/05 11:34:23;;;;;;;17.95;4.50;;;12.20;99.90;;;;;;5044107;28;20506;-40
2023/01/05 11:36:57;;;;;;;17.88;3.97;;;12.20;99.90;;;;;;5034975;28;20082;-40
2023/01/05 11:39:30;;;;;;;16.80;3.60;;;12.30;99.90;;;;;;5044446;28;20028;-38
2023/01/05 11:42:23;;;;;;;20.60;3.75;;;12.30;99.90;;;;;;5034056;28;20120;-39
2023/01/05 11:44:54;;;;;;;18.45;3.38;;;12.30;99.90;;;;;;5043717;28;20392;-38
2023/01/05 11:47:28;;;;;;;19.65;3.88;;;12.40;99.90;;;;;;5044217;28;20043;-41
2023/01/05 11:50:03;;;;;;;19.65;4.78;;;12.40;99.90;;;;;;5044218;28;20017;-38
2023/01/05 11:52:44;;;;;;;19.27;3.55;;;12.50;99.90;;;;;;5043836;28;20112;-40
2023/01/05 11:55:38;;;;;;;17.83;4.00;;;12.50;99.90;;;;;;5043375;28;20086;-39
2023/01/05 11:58:13;;;;;;;13.88;3.85;;;12.50;99.90;;;;;;5042877;28;20365;-40
2023/01/05 12:01:06;;;;;;;14.90;3.72;;;12.50;99.90;;;;;;5043966;28;20040;-39
2023/01/05 12:03:42;;;;;;;17.42;4.50;;;12.50;99.90;;;;;;5039746;28;20049;-41
2023/01/05 12:06:28;;;;;;;17.35;3.90;;;12.50;99.90;;;;;;5042481;28;20032;-40
2023/01/05 12:09:04;;;;;;;20.52;4.85;;;12.50;99.90;;;;;;5044135;28;20040;-39
2023/01/05 12:11:50;;;;;;;14.40;4.47;;;12.50;99.90;;;;;;5044075;28;20035;-40
2023/01/05 12:14:34;;;;;;;21.35;4.22;;;12.50;99.90;;;;;;5023459;28;20100;-40
2023/01/05 12:17:11;;;;;;;19.10;5.15;;;12.50;99.90;;;;;;5039838;28;20582;-39
2023/01/05 12:19:50;;;;;;;21.17;4.57;;;12.50;99.90;;;;;;5023409;28;20681;-39
2023/01/05 12:22:51;;;;;;;18.13;3.90;;;12.60;99.90;;;;;;5040578;28;20083;-40
2023/01/05 12:25:35;;;;;;;20.63;4.30;;;12.60;99.90;;;;;;5043315;28;20029;-40
2023/01/05 12:28:24;;;;;;;25.27;4.90;;;12.70;99.90;;;;;;5042791;28;20021;-38
2023/01/05 12:31:09;;;;;;;21.15;4.47;;;12.80;99.90;;;;;;5032266;28;20044;-38
2023/01/05 12:33:35;;;;;;;17.10;4.75;;;12.80;99.90;;;;;;5043018;28;20049;-40
2023/01/05 12:36:36;;;;;;;17.85;3.97;;;12.90;99.90;;;;;;5043333;28;20039;-41
2023/01/05 12:39:29;;;;;;;23.55;4.35;;;12.90;99.90;;;;;;5034190;28;20156;-37
2023/01/05 12:42:10;;;;;;;18.80;3.83;;;13.00;99.90;;;;;;5043007;28;20094;-39
2023/01/05 12:45:09;;;;;;;18.50;4.28;;;13.10;99.90;;;;;;5043503;28;20033;-39
2023/01/05 12:47:48;;;;;;;24.02;4.97;;;13.20;99.90;;;;;;5041973;28;20137;-40
2023/01/05 12:50:37;;;;;;;16.00;3.92;;;13.30;99.90;;;;;;5042963;28;20037;-38
2023/01/05 12:53:30;;;;;;;23.17;4.63;;;13.20;99.90;;;;;;5042460;28;20496;-40
2023/01/05 12:56:02;;;;;;;20.02;4.18;;;13.30;99.90;;;;;;5023436;28;20120;-40
2023/01/05 12:58:38;;;;;;;16.02;3.88;;;13.20;99.90;;;;;;5041062;28;20076;-39
2023/01/05 13:01:15;;;;;;;20.75;4.97;;;13.10;99.90;;;;;;5043660;28;20048;-38
2023/01/05 13:03:48;;;;;;;13.55;4.30;;;13.10;99.90;;;;;;5043115;28;20028;-38
2023/01/05 13:06:18;;;;;;;14.45;3.72;;;13.10;99.90;;;;;;5043151;28;20546;-42
2023/01/05 13:08:51;;;;;;;17.02;3.60;;;13.10;99.90;;;;;;5043264;28;20378;-38
2023/01/05 13:11:28;;;;;;;19.30;3.75;;;13.10;99.90;;;;;;5023291;28;20021;-38
2023/01/05 13:14:04;;;;;;;16.40;3.78;;;13.10;99.90;;;;;;5040466;28;20187;-39
2023/01/05 13:16:39;;;;;;;15.23;4.50;;;13.10;99.90;;;;;;5023977;28;20029;-40
2023/01/05 13:19:27;;;;;;;24.92;6.10;;;13.10;99.90;;;;;;5040203;28;20025;-39
2023/01/05 13:21:54;;;;;;;16.77;3.53;;;12.90;99.90;;;;;;5027306;28;20650;-40
2023/01/05 13:24:32;;;;;;;18.45;4.68;;;12.80;99.90;;;;;;5043185;28;20656;-40
2023/01/05 13:26:58;;;;;;;22.48;3.97;;;12.60;99.90;;;;;;5047622;28;20048;-40
2023/01/05 13:29:38;;;;;;;13.38;3.47;;;12.60;99.90;;;;;;5046790;28;20031;-40
2023/01/05 13:32:03;;;;;;;12.75;3.28;;;12.50;99.90;;;;;;5027371;28;20026;-39
2023/01/05 13:34:53;;;;;;;15.55;3.67;;;12.50;99.90;;;;;;5042697;28;20059;-39